Time;durP1;ratioP1;P1;durP2;ratioP2;P2;SDS_P1;SDS_P2;PMS_P1;PMS_P2;Temp;Humidity;BMP_temperature;BMP_pressure;BME280_temperature;BME280_humidity;BME280_pressure;Samples;Min_cycle;Max_cycle;Signal;HPM_P1;HPM_P2
2022/12/02 00:01:20;;;;;;;29.47;18.57;;;5.60;1.00;;;;;;5010826;28;20544;-63
2022/12/02 00:03:47;;;;;;;31.67;18.63;;;5.60;1.00;;;;;;5011586;28;20415;-64
2022/12/02 00:06:15;;;;;;;31.00;19.23;;;5.50;1.00;;;;;;5011932;28;20507;-63
2022/12/02 00:08:41;;;;;;;27.50;19.70;;;5.60;1.00;;;;;;5009476;28;20457;-63
2022/12/02 00:11:26;;;;;;;35.70;21.20;;;5.50;1.00;;;;;;5010706;28;20407;-63
2022/12/02 00:13:52;;;;;;;29.73;20.00;;;5.60;1.00;;;;;;5011477;28;20947;-63
2022/12/02 00:16:23;;;;;;;33.07;21.80;;;5.50;1.00;;;;;;5011884;28;20399;-63
2022/12/02 00:18:49;;;;;;;38.73;20.77;;;5.60;1.00;;;;;;5011169;28;20410;-63
2022/12/02 00:21:15;;;;;;;32.27;18.37;;;5.50;1.00;;;;;;5009681;28;20419;-63
2022/12/02 00:23:41;;;;;;;26.13;17.00;;;5.60;1.00;;;;;;5010654;28;20945;-63
2022/12/02 00:26:07;;;;;;;28.03;17.80;;;5.60;1.00;;;;;;5011935;28;20625;-63
2022/12/02 00:28:33;;;;;;;30.37;18.53;;;5.60;1.00;;;;;;5011304;28;20515;-63
2022/12/02 00:30:58;;;;;;;28.97;18.07;;;5.70;1.00;;;;;;5008605;28;20712;-63
2022/12/02 00:33:24;;;;;;;31.53;19.60;;;5.60;1.00;;;;;;5010532;28;20549;-63
2022/12/02 00:35:50;;;;;;;26.70;17.57;;;5.50;1.00;;;;;;5009380;28;20184;-63
2022/12/02 00:38:16;;;;;;;27.60;19.37;;;5.50;1.00;;;;;;5009412;28;20275;-63
2022/12/02 00:40:41;;;;;;;25.90;18.30;;;5.60;1.00;;;;;;5009958;28;20165;-63
2022/12/02 00:48:46;;;;;;;30.93;19.17;;;5.60;1.00;;;;;;4986994;28;20431;-63
2022/12/02 00:51:12;;;;;;;27.80;18.50;;;5.60;1.00;;;;;;5008264;28;20936;-63
2022/12/02 00:53:37;;;;;;;27.67;18.47;;;5.50;1.00;;;;;;5010681;28;20590;-63
2022/12/02 00:56:03;;;;;;;26.00;16.63;;;5.50;1.00;;;;;;5010502;28;20191;-63
2022/12/02 00:58:29;;;;;;;25.70;18.47;;;5.50;1.00;;;;;;5009917;28;20204;-63
2022/12/02 01:00:54;;;;;;;24.93;17.73;;;5.50;1.00;;;;;;5010113;28;20168;-63
2022/12/02 01:03:20;;;;;;;29.60;17.90;;;5.40;1.00;;;;;;5010532;28;20233;-63
2022/12/02 01:05:46;;;;;;;29.67;18.90;;;5.40;1.00;;;;;;5009860;28;20580;-63
2022/12/02 01:08:11;;;;;;;28.27;18.67;;;5.50;1.00;;;;;;5009139;28;20261;-63
2022/12/02 01:10:37;;;;;;;27.57;16.70;;;5.60;1.00;;;;;;5009379;28;20183;-63
2022/12/02 01:13:03;;;;;;;24.93;17.53;;;5.50;1.00;;;;;;5010646;28;20207;-63
2022/12/02 01:15:29;;;;;;;26.67;18.10;;;5.50;1.00;;;;;;5009735;28;20191;-63
2022/12/02 01:17:55;;;;;;;30.10;19.60;;;5.50;1.00;;;;;;5009051;28;20446;-63
2022/12/02 01:20:20;;;;;;;30.37;19.33;;;5.50;1.00;;;;;;5009605;28;20587;-63
2022/12/02 01:22:46;;;;;;;25.40;16.93;;;5.50;1.00;;;;;;5010231;28;20172;-63
2022/12/02 01:25:12;;;;;;;33.10;19.10;;;5.60;1.00;;;;;;5009291;28;20184;-63
2022/12/02 01:27:37;;;;;;;34.13;19.90;;;5.50;1.00;;;;;;5009466;28;20200;-63
2022/12/02 01:30:04;;;;;;;31.97;19.93;;;5.50;1.00;;;;;;5010188;28;20194;-63
2022/12/02 01:32:29;;;;;;;36.20;19.27;;;5.50;1.00;;;;;;5009660;28;20219;-63
2022/12/02 01:34:55;;;;;;;30.93;20.23;;;5.50;1.00;;;;;;5009401;28;20435;-63
2022/12/02 01:37:21;;;;;;;30.70;18.57;;;5.50;1.00;;;;;;5009306;28;20270;-63
2022/12/02 01:39:46;;;;;;;41.90;20.97;;;5.50;1.00;;;;;;5009636;28;20586;-63
2022/12/02 01:42:12;;;;;;;26.93;19.13;;;5.50;1.00;;;;;;5009310;28;20160;-63
2022/12/02 01:44:38;;;;;;;28.80;18.00;;;5.50;1.00;;;;;;5009056;28;20176;-63
2022/12/02 01:47:04;;;;;;;25.70;17.90;;;5.50;1.00;;;;;;5008989;28;20216;-63
2022/12/02 01:49:30;;;;;;;30.20;18.67;;;5.50;1.00;;;;;;5009588;28;20172;-63
2022/12/02 01:51:56;;;;;;;31.17;19.47;;;5.50;1.00;;;;;;5008970;28;20538;-63
2022/12/02 01:54:21;;;;;;;33.37;21.97;;;5.50;1.00;;;;;;5041751;23;20508;-64
2022/12/02 01:56:47;;;;;;;27.80;18.10;;;5.50;1.00;;;;;;5023534;28;20254;-66
2022/12/02 01:59:14;;;;;;;33.63;19.93;;;5.50;1.00;;;;;;5040940;28;20159;-67
2022/12/02 02:01:40;;;;;;;28.27;20.03;;;5.50;1.00;;;;;;5035840;28;20685;-63
2022/12/02 02:04:07;;;;;;;29.60;18.93;;;5.60;1.00;;;;;;5015973;28;20444;-67
2022/12/02 02:06:40;;;;;;;33.33;19.10;;;5.50;1.00;;;;;;5019200;28;20180;-65
2022/12/02 02:09:06;;;;;;;35.03;20.10;;;5.40;1.00;;;;;;5010771;28;20763;-67
2022/12/02 02:11:33;;;;;;;30.60;19.60;;;5.50;1.00;;;;;;5015394;28;20768;-65
2022/12/02 02:13:59;;;;;;;32.07;23.00;;;5.60;1.00;;;;;;5009860;28;20540;-65
2022/12/02 02:16:25;;;;;;;33.23;18.30;;;5.60;1.00;;;;;;5016534;28;20530;-65
2022/12/02 02:18:50;;;;;;;25.63;18.20;;;5.70;1.00;;;;;;5017782;28;20411;-66
2022/12/02 02:21:23;;;;;;;31.63;19.80;;;5.70;1.00;;;;;;4989719;28;20169;-63
2022/12/02 02:23:49;;;;;;;31.73;19.60;;;5.60;1.00;;;;;;4989603;28;20200;-65
2022/12/02 02:26:15;;;;;;;30.83;18.87;;;5.60;1.00;;;;;;5015864;28;20423;-67
2022/12/02 02:28:41;;;;;;;29.43;17.30;;;5.60;1.00;;;;;;5006456;28;20557;-67
2022/12/02 02:31:06;;;;;;;30.10;19.63;;;5.50;1.00;;;;;;5009023;28;20419;-67
2022/12/02 02:33:33;;;;;;;27.57;17.53;;;5.40;1.00;;;;;;5009368;28;20215;-67
2022/12/02 02:36:00;;;;;;;26.20;17.33;;;5.40;1.00;;;;;;5017372;28;20205;-67
2022/12/02 02:38:29;;;;;;;26.30;18.20;;;5.40;1.00;;;;;;5013578;28;20430;-67
2022/12/02 02:40:56;;;;;;;32.00;19.23;;;5.50;1.00;;;;;;5020484;28;20494;-66
2022/12/02 02:43:24;;;;;;;28.97;19.40;;;5.60;1.00;;;;;;5029228;28;20768;-68
2022/12/02 02:45:52;;;;;;;31.53;19.40;;;5.60;1.00;;;;;;5010161;28;20434;-68
2022/12/02 02:48:18;;;;;;;32.53;19.07;;;5.60;1.00;;;;;;5021003;28;20525;-67
2022/12/02 02:50:46;;;;;;;28.17;17.50;;;5.60;1.00;;;;;;5028422;28;20410;-67
2022/12/02 02:53:14;;;;;;;24.03;16.73;;;5.60;1.00;;;;;;5028890;28;20474;-67
2022/12/02 02:55:40;;;;;;;24.93;15.33;;;5.60;1.00;;;;;;5022399;28;20950;-67
2022/12/02 02:58:07;;;;;;;25.10;17.57;;;5.40;1.00;;;;;;5021256;28;20509;-67
2022/12/02 03:00:33;;;;;;;24.07;15.40;;;5.50;1.00;;;;;;5028007;28;20175;-66
2022/12/02 03:02:58;;;;;;;22.07;14.87;;;5.40;1.00;;;;;;5024304;28;20473;-67
2022/12/02 03:05:24;;;;;;;25.77;14.97;;;5.40;1.00;;;;;;5014446;28;20186;-68
2022/12/02 03:07:50;;;;;;;23.00;15.30;;;5.30;1.00;;;;;;5024766;28;20663;-67
2022/12/02 03:10:16;;;;;;;24.00;15.37;;;5.40;1.00;;;;;;5032103;28;20229;-67
2022/12/02 03:12:42;;;;;;;22.33;14.13;;;5.30;1.00;;;;;;5032414;28;20453;-64
2022/12/02 03:15:08;;;;;;;24.10;14.90;;;5.20;1.00;;;;;;5026852;28;20625;-64
2022/12/02 03:17:35;;;;;;;24.30;15.00;;;5.20;1.00;;;;;;5024845;28;20496;-65
2022/12/02 03:20:01;;;;;;;24.40;14.97;;;5.30;1.00;;;;;;5032618;28;20409;-65
2022/12/02 03:22:27;;;;;;;23.47;13.57;;;5.30;1.00;;;;;;5032000;28;20448;-65
2022/12/02 03:24:52;;;;;;;22.23;14.57;;;5.40;1.00;;;;;;5022661;28;20185;-64
2022/12/02 03:27:18;;;;;;;25.57;14.37;;;5.10;1.00;;;;;;5025243;28;20243;-64
2022/12/02 03:29:44;;;;;;;34.20;14.67;;;5.20;1.00;;;;;;5032851;28;20179;-64
2022/12/02 03:32:10;;;;;;;24.17;15.27;;;5.20;1.00;;;;;;5030661;28;20278;-65
2022/12/02 03:34:40;;;;;;;24.50;16.10;;;5.30;1.00;;;;;;5012266;28;20201;-65
2022/12/02 03:37:06;;;;;;;22.27;13.63;;;5.40;1.00;;;;;;5023357;28;21155;-66
2022/12/02 03:39:31;;;;;;;21.60;14.47;;;5.20;1.00;;;;;;5032151;28;20410;-65
2022/12/02 03:41:57;;;;;;;20.03;13.57;;;5.20;1.00;;;;;;5029430;28;20187;-66
2022/12/02 03:44:23;;;;;;;20.47;12.23;;;4.50;1.00;;;;;;5023956;28;20188;-67
2022/12/02 03:46:49;;;;;;;16.97;11.93;;;4.20;1.00;;;;;;5021395;28;20176;-67
2022/12/02 03:49:16;;;;;;;13.30;9.40;;;4.20;1.00;;;;;;5032754;28;20644;-67
2022/12/02 03:51:42;;;;;;;13.73;9.57;;;4.20;1.00;;;;;;5032162;28;20571;-66
2022/12/02 03:54:08;;;;;;;14.10;9.43;;;3.90;1.00;;;;;;5039674;28;20505;-65
2022/12/02 03:56:41;;;;;;;12.33;8.10;;;4.10;1.00;;;;;;5025958;28;20930;-64
2022/12/02 03:59:08;;;;;;;13.20;8.90;;;4.30;1.00;;;;;;5030592;28;20656;-66
2022/12/02 04:01:34;;;;;;;12.83;8.13;;;4.20;1.00;;;;;;5032175;28;20410;-63
2022/12/02 04:04:00;;;;;;;15.20;8.43;;;4.40;1.00;;;;;;5020464;28;20551;-66
2022/12/02 04:06:25;;;;;;;15.00;9.17;;;4.00;1.00;;;;;;5022860;28;20625;-67
2022/12/02 04:08:51;;;;;;;14.17;9.17;;;4.00;1.00;;;;;;5028178;28;20167;-64
2022/12/02 04:11:17;;;;;;;12.07;8.27;;;4.10;1.00;;;;;;5031066;28;20175;-66
2022/12/02 04:13:42;;;;;;;20.47;8.90;;;4.10;1.00;;;;;;5024985;28;20215;-63
2022/12/02 04:16:08;;;;;;;13.77;8.50;;;4.30;1.00;;;;;;5023643;28;20194;-63
2022/12/02 04:18:33;;;;;;;11.90;8.80;;;4.40;1.00;;;;;;5025263;28;20172;-64
2022/12/02 04:20:59;;;;;;;13.27;9.87;;;4.40;1.00;;;;;;5030996;28;20172;-64
2022/12/02 04:23:25;;;;;;;20.57;12.33;;;4.40;1.00;;;;;;5026816;28;20821;-66
2022/12/02 04:25:50;;;;;;;18.33;11.73;;;4.50;1.00;;;;;;5012188;28;20176;-66
2022/12/02 04:28:16;;;;;;;15.13;9.70;;;4.50;1.00;;;;;;5011683;28;20176;-65
2022/12/02 04:30:42;;;;;;;13.50;10.20;;;4.60;1.00;;;;;;5010858;28;20184;-64
2022/12/02 04:33:07;;;;;;;17.10;10.70;;;4.60;1.00;;;;;;5002596;28;20216;-67
2022/12/02 04:35:33;;;;;;;16.77;9.63;;;4.70;1.00;;;;;;5014456;28;20173;-67
2022/12/02 04:37:59;;;;;;;16.40;8.73;;;4.80;1.00;;;;;;5029498;28;20691;-64
2022/12/02 04:40:25;;;;;;;10.50;7.97;;;5.00;1.00;;;;;;5030180;28;20250;-64
2022/12/02 04:42:50;;;;;;;12.53;8.00;;;4.90;99.90;;;;;;5031186;28;20195;-64
2022/12/02 04:45:16;;;;;;;14.53;9.20;;;4.90;1.00;;;;;;5021479;28;20267;-66
2022/12/02 04:47:42;;;;;;;11.23;7.80;;;4.90;1.00;;;;;;5026671;28;20211;-68
2022/12/02 04:50:08;;;;;;;11.17;8.40;;;4.90;1.00;;;;;;5031405;28;20187;-68
2022/12/02 04:52:34;;;;;;;11.90;8.20;;;5.00;1.00;;;;;;5017653;28;20211;-66
2022/12/02 04:54:59;;;;;;;20.00;8.90;;;5.00;1.00;;;;;;5012923;28;20523;-69
2022/12/02 04:57:25;;;;;;;14.77;8.60;;;5.10;1.00;;;;;;5003376;28;20246;-69
2022/12/02 04:59:51;;;;;;;12.93;7.63;;;5.00;1.00;;;;;;4991541;28;20614;-68
2022/12/02 05:02:16;;;;;;;14.30;9.27;;;5.10;1.00;;;;;;4990843;28;20191;-68
2022/12/02 05:04:42;;;;;;;12.43;7.60;;;5.00;1.00;;;;;;4991518;28;20661;-68
2022/12/02 05:07:08;;;;;;;18.13;8.90;;;5.00;1.00;;;;;;4991760;28;20181;-67
2022/12/02 05:09:34;;;;;;;12.07;7.83;;;5.00;1.00;;;;;;4991168;28;20835;-67
2022/12/02 05:12:00;;;;;;;14.43;7.37;;;5.10;1.00;;;;;;4990429;28;20684;-68
2022/12/02 05:14:25;;;;;;;9.47;7.10;;;5.10;1.00;;;;;;4991236;28;20251;-68
2022/12/02 05:16:51;;;;;;;15.10;8.20;;;5.10;1.00;;;;;;4991625;28;20177;-67
2022/12/02 05:19:16;;;;;;;10.80;7.27;;;5.10;1.00;;;;;;4991145;28;20549;-66
2022/12/02 05:21:42;;;;;;;13.20;9.10;;;5.20;99.90;;;;;;4990501;28;20534;-66
2022/12/02 05:24:08;;;;;;;12.40;8.33;;;5.10;99.90;;;;;;4990492;28;20272;-68
2022/12/02 05:26:34;;;;;;;12.70;8.47;;;5.10;99.90;;;;;;4991372;28;20263;-67
2022/12/02 05:28:59;;;;;;;11.00;8.33;;;5.10;1.00;;;;;;4990904;28;20573;-67
2022/12/02 05:31:25;;;;;;;13.40;7.87;;;5.10;99.90;;;;;;5007794;28;20551;-68
2022/12/02 05:33:51;;;;;;;13.27;8.73;;;5.20;99.90;;;;;;5013355;28;20641;-68
2022/12/02 05:36:16;;;;;;;18.13;8.77;;;5.20;99.90;;;;;;5001079;28;20180;-68
2022/12/02 05:38:42;;;;;;;13.13;8.40;;;5.20;99.90;;;;;;5019368;28;20168;-68
2022/12/02 05:41:07;;;;;;;15.80;9.50;;;5.00;99.90;;;;;;5010840;28;20192;-66
2022/12/02 05:43:38;;;;;;;11.80;8.17;;;5.10;99.90;;;;;;4991355;28;20767;-68
2022/12/02 05:46:14;;;;;;;11.40;7.73;;;5.10;99.90;;;;;;4995080;28;20223;-66
2022/12/02 05:48:41;;;;;;;11.60;7.30;;;5.00;99.90;;;;;;5021602;28;20410;-66
2022/12/02 05:51:14;;;;;;;12.43;8.10;;;4.90;1.00;;;;;;5023250;28;20787;-66
2022/12/02 05:53:41;;;;;;;15.30;9.20;;;5.00;22.30;;;;;;5005218;28;20475;-68
2022/12/02 05:56:23;;;;;;;11.73;9.07;;;4.90;45.70;;;;;;5025736;28;20481;-67
2022/12/02 05:58:49;;;;;;;11.63;8.20;;;4.90;99.90;;;;;;5018845;28;20938;-68
2022/12/02 06:01:53;;;;;;;13.37;9.57;;;5.00;99.90;;;;;;5026736;28;20398;-68
2022/12/02 06:04:29;;;;;;;17.10;9.50;;;5.10;99.90;;;;;;4974974;28;20420;-67
2022/12/02 06:07:00;;;;;;;13.87;9.40;;;5.10;99.90;;;;;;5011662;28;20504;-67
2022/12/02 06:09:29;;;;;;;13.00;9.70;;;5.20;99.90;;;;;;5007022;28;20815;-66
2022/12/02 06:11:56;;;;;;;13.80;8.90;;;5.20;99.90;;;;;;5006658;28;20473;-69
2022/12/02 06:14:24;;;;;;;12.50;9.30;;;5.20;99.90;;;;;;5014225;28;20443;-66
2022/12/02 06:16:57;;;;;;;15.20;10.20;;;5.20;56.90;;;;;;5021570;28;20425;-66
2022/12/02 06:19:26;;;;;;;17.37;9.70;;;5.20;90.50;;;;;;5008684;28;20430;-67
2022/12/02 06:21:53;;;;;;;16.70;10.10;;;5.20;99.90;;;;;;5000294;28;20416;-66
2022/12/02 06:24:31;;;;;;;14.23;9.13;;;5.20;99.90;;;;;;5003844;28;20460;-67
2022/12/02 06:26:59;;;;;;;11.90;8.47;;;5.20;99.90;;;;;;5005029;28;20438;-66
2022/12/02 06:29:26;;;;;;;18.53;10.20;;;5.10;99.90;;;;;;5006090;28;20435;-66
2022/12/02 06:31:52;;;;;;;16.80;9.83;;;5.10;99.90;;;;;;5005573;28;20455;-67
2022/12/02 06:34:33;;;;;;;20.07;12.07;;;5.30;99.90;;;;;;4997834;28;20448;-68
2022/12/02 06:37:07;;;;;;;16.50;10.50;;;5.30;1.00;;;;;;5001776;28;20514;-66
2022/12/02 06:39:33;;;;;;;18.40;9.87;;;5.20;1.00;;;;;;4999708;28;20775;-68
2022/12/02 06:42:05;;;;;;;18.70;11.50;;;5.30;26.50;;;;;;5009719;28;20420;-66
2022/12/02 06:47:36;;;;;;;19.43;10.40;;;5.30;99.90;;;;;;5003149;28;20454;-68
2022/12/02 06:50:05;;;;;;;20.40;12.23;;;5.30;99.90;;;;;;5008130;28;20431;-67
2022/12/02 06:52:38;;;;;;;18.07;11.50;;;5.30;9.40;;;;;;5005985;28;20466;-66
2022/12/02 06:55:24;;;;;;;18.63;12.07;;;5.30;1.00;;;;;;5008705;28;20462;-67
2022/12/02 06:57:50;;;;;;;19.70;11.20;;;5.30;92.20;;;;;;5006008;28;20435;-67
2022/12/02 07:00:16;;;;;;;25.97;11.10;;;5.30;55.10;;;;;;5007150;28;20541;-67
2022/12/02 07:02:42;;;;;;;15.10;10.80;;;5.30;99.90;;;;;;5004538;28;20200;-69
2022/12/02 07:05:15;;;;;;;19.40;12.20;;;5.40;1.00;;;;;;5009190;28;20190;-67
2022/12/02 07:07:41;;;;;;;16.20;10.00;;;5.30;1.00;;;;;;5010243;28;20478;-66
2022/12/02 07:10:18;;;;;;;19.50;12.40;;;5.30;1.00;;;;;;5007584;28;20870;-67
2022/12/02 07:12:45;;;;;;;17.93;12.87;;;5.10;1.00;;;;;;5009318;28;20195;-68
2022/12/02 07:15:29;;;;;;;17.30;11.47;;;4.90;78.50;;;;;;5007757;28;20457;-68
2022/12/02 07:18:01;;;;;;;20.63;13.17;;;5.00;99.90;;;;;;5009177;28;20431;-68
2022/12/02 07:20:36;;;;;;;19.27;11.70;;;5.00;99.90;;;;;;4998744;28;20487;-67
2022/12/02 07:23:21;;;;;;;46.67;17.17;;;4.90;99.90;;;;;;5006601;28;20451;-67
2022/12/02 07:25:50;;;;;;;19.97;11.90;;;4.90;99.90;;;;;;5005366;28;20442;-68
2022/12/02 07:28:30;;;;;;;21.87;11.90;;;4.90;99.90;;;;;;4996806;28;20757;-68
2022/12/02 07:31:12;;;;;;;19.37;13.40;;;4.80;1.00;;;;;;5014155;28;20957;-66
2022/12/02 07:33:38;;;;;;;30.30;15.20;;;4.80;1.00;;;;;;5009435;28;20470;-68
2022/12/02 07:36:04;;;;;;;22.77;14.43;;;4.90;1.00;;;;;;5007109;28;20440;-64
2022/12/02 07:38:29;;;;;;;19.63;13.70;;;4.90;1.00;;;;;;5007658;28;20180;-65
2022/12/02 07:40:55;;;;;;;26.60;16.37;;;4.80;1.00;;;;;;5009256;28;20222;-67
2022/12/02 07:43:21;;;;;;;25.63;15.70;;;4.80;1.00;;;;;;5008971;28;20673;-66
2022/12/02 07:45:46;;;;;;;25.60;15.10;;;4.90;1.00;;;;;;5013046;28;20206;-68
2022/12/02 07:48:12;;;;;;;25.00;15.03;;;5.10;1.00;;;;;;5006822;28;20577;-67
2022/12/02 07:50:38;;;;;;;25.93;16.40;;;4.90;1.00;;;;;;5011780;28;20546;-67
2022/12/02 07:53:04;;;;;;;28.33;15.90;;;4.70;1.00;;;;;;5030223;23;20475;-66
2022/12/02 07:55:29;;;;;;;27.47;17.67;;;4.70;1.00;;;;;;5024001;28;20188;-67
2022/12/02 07:57:55;;;;;;;28.37;16.67;;;4.70;1.00;;;;;;5020807;28;20173;-66
2022/12/02 08:00:22;;;;;;;23.90;15.97;;;4.90;1.00;;;;;;5013821;28;20658;-68
2022/12/02 08:02:47;;;;;;;22.57;16.77;;;5.10;1.00;;;;;;5026071;28;20290;-67
2022/12/02 08:05:13;;;;;;;24.70;15.87;;;5.10;1.00;;;;;;5023523;28;20538;-66
2022/12/02 08:07:39;;;;;;;26.10;15.23;;;5.10;1.00;;;;;;5020985;28;20172;-68
2022/12/02 08:10:05;;;;;;;28.83;16.27;;;5.00;1.00;;;;;;5016471;28;20181;-67
2022/12/02 08:12:31;;;;;;;21.63;14.50;;;5.00;1.00;;;;;;5021617;28;20199;-67
2022/12/02 08:14:57;;;;;;;33.73;15.70;;;5.00;1.00;;;;;;5019258;28;20446;-66
2022/12/02 08:17:23;;;;;;;28.03;15.67;;;5.00;1.00;;;;;;5026945;28;20536;-68
2022/12/02 08:19:48;;;;;;;27.60;15.90;;;5.00;1.00;;;;;;5023631;28;20243;-68
2022/12/02 08:22:14;;;;;;;32.53;16.53;;;5.00;1.00;;;;;;5030613;28;20182;-66
2022/12/02 08:24:42;;;;;;;29.53;16.17;;;5.10;1.00;;;;;;5015231;28;20205;-66
2022/12/02 08:27:08;;;;;;;28.87;17.07;;;5.00;1.00;;;;;;5014493;28;20172;-67
2022/12/02 08:29:34;;;;;;;25.83;15.97;;;4.90;1.00;;;;;;5012336;28;20403;-68
2022/12/02 08:32:00;;;;;;;26.00;16.20;;;4.90;1.00;;;;;;5011014;28;20235;-67
2022/12/02 08:34:25;;;;;;;34.00;16.90;;;4.90;1.00;;;;;;5031395;28;20854;-67
2022/12/02 08:36:51;;;;;;;29.03;18.50;;;4.90;1.00;;;;;;5031404;28;20190;-67
2022/12/02 08:39:17;;;;;;;34.00;21.90;;;4.90;1.00;;;;;;5027917;28;20175;-67
2022/12/02 08:41:42;;;;;;;28.53;18.17;;;5.00;1.00;;;;;;5018629;28;20172;-67
2022/12/02 08:44:08;;;;;;;24.50;15.73;;;4.90;1.00;;;;;;5031077;28;20184;-67
2022/12/02 08:46:35;;;;;;;24.70;14.90;;;4.80;1.00;;;;;;5020392;28;20263;-68
2022/12/02 08:49:01;;;;;;;22.30;13.43;;;4.80;1.00;;;;;;5010527;28;20190;-70
2022/12/02 08:51:27;;;;;;;21.77;14.83;;;4.80;1.00;;;;;;5027916;28;20414;-65
2022/12/02 08:53:53;;;;;;;26.50;15.77;;;4.90;1.00;;;;;;5010854;28;20539;-67
2022/12/02 08:56:19;;;;;;;26.80;16.07;;;5.00;1.00;;;;;;5020610;28;20430;-67
2022/12/02 08:58:44;;;;;;;26.73;15.23;;;5.20;1.00;;;;;;5031597;28;20168;-65
2022/12/02 09:01:10;;;;;;;25.60;15.00;;;5.20;99.90;;;;;;5032341;28;20180;-67
2022/12/02 09:03:36;;;;;;;27.67;16.13;;;5.20;99.90;;;;;;5030470;28;20223;-65
2022/12/02 09:06:02;;;;;;;27.83;16.37;;;5.30;99.90;;;;;;5026696;28;20263;-67
2022/12/02 09:08:27;;;;;;;28.47;16.83;;;5.30;99.90;;;;;;5030340;28;20202;-69
2022/12/02 09:10:53;;;;;;;31.00;19.50;;;5.20;99.90;;;;;;5029514;28;20699;-67
2022/12/02 09:13:19;;;;;;;32.80;18.63;;;5.20;99.90;;;;;;5028684;28;20257;-68
2022/12/02 09:15:44;;;;;;;29.27;20.10;;;5.10;99.90;;;;;;5022405;28;20259;-66
2022/12/02 09:18:10;;;;;;;33.70;19.63;;;5.10;99.90;;;;;;5021813;28;20176;-69
2022/12/02 09:20:36;;;;;;;28.80;16.73;;;5.10;99.90;;;;;;5023852;28;20228;-69
2022/12/02 09:23:02;;;;;;;34.67;18.80;;;5.00;99.90;;;;;;5024187;28;20954;-68
2022/12/02 09:25:28;;;;;;;36.00;21.27;;;5.10;99.90;;;;;;5023713;28;20233;-69
2022/12/02 09:27:53;;;;;;;33.30;20.27;;;5.10;99.90;;;;;;5021078;28;20624;-68
2022/12/02 09:30:19;;;;;;;32.33;22.70;;;5.20;99.90;;;;;;5015644;28;20575;-67
2022/12/02 09:32:45;;;;;;;38.60;22.40;;;5.20;99.90;;;;;;5020862;28;20238;-67
2022/12/02 09:35:11;;;;;;;38.60;21.87;;;5.20;99.90;;;;;;5028987;28;20202;-69
2022/12/02 09:37:36;;;;;;;32.93;18.50;;;5.20;99.90;;;;;;5021657;28;20604;-68
2022/12/02 09:40:05;;;;;;;30.43;18.60;;;5.20;1.00;;;;;;5008942;28;20522;-67
2022/12/02 09:42:32;;;;;;;32.77;19.57;;;5.30;1.00;;;;;;5009406;28;20307;-68
2022/12/02 09:44:58;;;;;;;35.60;21.27;;;5.10;1.00;;;;;;5010084;28;20427;-67
2022/12/02 09:47:25;;;;;;;34.47;22.80;;;5.00;99.90;;;;;;5028371;28;20558;-68
2022/12/02 09:49:51;;;;;;;36.90;22.20;;;5.00;99.90;;;;;;5019660;28;20462;-68
2022/12/02 09:52:23;;;;;;;34.43;22.27;;;5.00;99.90;;;;;;5013456;28;20455;-67
2022/12/02 09:54:51;;;;;;;32.03;20.20;;;5.10;1.00;;;;;;5015831;28;20529;-67
2022/12/02 09:57:17;;;;;;;30.73;17.80;;;5.20;99.90;;;;;;5022438;28;20501;-67
2022/12/02 09:59:43;;;;;;;28.90;19.47;;;5.20;99.90;;;;;;5020078;28;20915;-68
2022/12/02 10:02:19;;;;;;;29.53;18.60;;;5.20;99.90;;;;;;5021034;28;20187;-66
2022/12/02 10:04:45;;;;;;;36.20;19.43;;;5.10;99.90;;;;;;5019407;28;20454;-66
2022/12/02 10:07:11;;;;;;;46.03;18.27;;;5.10;1.00;;;;;;5025637;28;20512;-68
2022/12/02 10:09:36;;;;;;;26.83;16.67;;;5.30;99.90;;;;;;5024046;28;20203;-68
2022/12/02 10:12:02;;;;;;;66.90;21.73;;;5.40;99.90;;;;;;5023104;28;20211;-70
2022/12/02 10:14:28;;;;;;;68.20;21.33;;;5.50;99.90;;;;;;5026084;28;20195;-69
2022/12/02 10:16:54;;;;;;;34.90;18.27;;;5.60;99.90;;;;;;5018618;28;20797;-68
2022/12/02 10:19:20;;;;;;;28.97;18.50;;;5.50;85.00;;;;;;5019684;28;20685;-69
2022/12/02 10:21:46;;;;;;;50.67;18.90;;;5.40;1.00;;;;;;5023166;28;20186;-67
2022/12/02 10:24:12;;;;;;;26.03;15.60;;;5.50;1.00;;;;;;5022359;28;20451;-69
2022/12/02 10:26:49;;;;;;;43.33;16.80;;;5.30;1.00;;;;;;5018576;28;20792;-68
2022/12/02 10:29:27;;;;;;;27.37;16.87;;;5.50;1.00;;;;;;5025837;28;20450;-67
2022/12/02 10:32:01;;;;;;;39.00;16.73;;;5.60;1.00;;;;;;5021446;28;20469;-65
2022/12/02 10:34:29;;;;;;;25.07;15.07;;;5.50;1.00;;;;;;5023093;28;20855;-65
2022/12/02 10:36:55;;;;;;;24.60;17.27;;;5.50;1.00;;;;;;5022800;28;20473;-68
2022/12/02 10:39:26;;;;;;;25.20;15.10;;;5.50;1.00;;;;;;5021704;28;20443;-66
2022/12/02 10:42:03;;;;;;;19.90;13.53;;;5.50;1.00;;;;;;5018188;28;20183;-66
2022/12/02 10:44:31;;;;;;;24.37;14.90;;;5.40;1.00;;;;;;5018032;28;20465;-66
2022/12/02 10:47:20;;;;;;;55.90;18.53;;;5.50;1.00;;;;;;5026041;28;20442;-66
2022/12/02 10:49:54;;;;;;;37.93;15.40;;;5.50;99.90;;;;;;5011161;28;20435;-67
2022/12/02 10:52:26;;;;;;;24.53;13.30;;;5.50;1.00;;;;;;5019940;28;20948;-66
2022/12/02 10:54:54;;;;;;;21.60;13.00;;;5.50;99.90;;;;;;5026995;28;20569;-68
2022/12/02 10:57:27;;;;;;;19.20;12.70;;;5.50;99.90;;;;;;5021345;28;20406;-69
2022/12/02 10:59:58;;;;;;;40.30;16.30;;;5.60;1.00;;;;;;5028857;28;20399;-67
2022/12/02 11:02:31;;;;;;;24.00;15.00;;;5.70;1.00;;;;;;5027792;28;20402;-66
2022/12/02 11:05:00;;;;;;;18.93;12.80;;;5.80;1.00;;;;;;5018501;28;20545;-67
2022/12/02 11:07:26;;;;;;;18.20;12.87;;;5.90;47.00;;;;;;5028640;28;20418;-67
2022/12/02 11:09:55;;;;;;;22.97;14.10;;;5.90;1.00;;;;;;5028033;28;20479;-66
2022/12/02 11:12:34;;;;;;;33.17;12.10;;;5.80;99.90;;;;;;5014525;28;20497;-68
2022/12/02 11:15:04;;;;;;;43.63;15.70;;;6.00;1.00;;;;;;5025581;28;20481;-68
2022/12/02 11:17:51;;;;;;;29.93;15.07;;;6.10;99.90;;;;;;5015309;28;20415;-67
2022/12/02 11:20:33;;;;;;;21.90;12.33;;;5.80;1.00;;;;;;5018972;28;20652;-64
2022/12/02 11:22:59;;;;;;;47.03;14.17;;;5.60;1.00;;;;;;5024056;28;20441;-69
2022/12/02 11:25:43;;;;;;;30.70;13.13;;;5.70;1.00;;;;;;5023993;28;20895;-68
2022/12/02 11:28:17;;;;;;;25.07;12.13;;;5.70;99.90;;;;;;5029600;28;20201;-67
2022/12/02 11:31:07;;;;;;;31.97;12.33;;;5.60;99.90;;;;;;5025733;28;20550;-68
2022/12/02 11:33:48;;;;;;;21.43;11.50;;;5.80;99.90;;;;;;5025570;28;21085;-68
2022/12/02 11:36:17;;;;;;;19.17;13.03;;;5.80;99.90;;;;;;5028872;28;20750;-70
2022/12/02 11:38:50;;;;;;;18.83;13.33;;;5.80;99.90;;;;;;5026158;28;20433;-67
2022/12/02 11:41:18;;;;;;;18.13;13.20;;;6.00;99.90;;;;;;5024381;28;20435;-68
2022/12/02 11:43:43;;;;;;;17.93;13.03;;;5.80;99.90;;;;;;5024965;28;20457;-71
2022/12/02 11:46:10;;;;;;;23.97;13.47;;;5.70;99.90;;;;;;5026592;28;20923;-67
2022/12/02 11:48:55;;;;;;;18.83;12.60;;;5.80;1.00;;;;;;5027198;28;20183;-70
2022/12/02 11:51:27;;;;;;;15.47;11.20;;;5.90;1.00;;;;;;5020198;28;21001;-67
2022/12/02 11:53:53;;;;;;;18.73;12.00;;;5.80;1.00;;;;;;5022935;28;20835;-67
2022/12/02 11:56:19;;;;;;;16.67;11.37;;;5.70;1.00;;;;;;5029530;28;20545;-66
2022/12/02 11:58:45;;;;;;;16.37;11.47;;;5.60;1.00;;;;;;5026158;28;20873;-66
2022/12/02 12:01:18;;;;;;;19.60;12.10;;;5.60;1.00;;;;;;5024422;28;20270;-66
2022/12/02 12:03:46;;;;;;;19.03;11.70;;;5.70;1.00;;;;;;5028669;28;20204;-67
2022/12/02 12:06:24;;;;;;;25.73;12.10;;;5.80;1.00;;;;;;5027225;28;20521;-66
2022/12/02 12:08:53;;;;;;;22.40;11.40;;;5.80;1.00;;;;;;5017607;28;20441;-67
2022/12/02 12:11:29;;;;;;;29.00;14.10;;;5.70;1.00;;;;;;5027307;28;20502;-65
2022/12/02 12:14:12;;;;;;;23.43;14.63;;;5.80;1.00;;;;;;5029577;28;20509;-65
2022/12/02 12:16:45;;;;;;;22.00;14.00;;;5.90;1.00;;;;;;5032447;28;21112;-67
2022/12/02 12:19:10;;;;;;;19.17;11.77;;;5.80;1.00;;;;;;5030040;28;20458;-66
2022/12/02 12:21:41;;;;;;;14.87;10.23;;;5.80;1.00;;;;;;5032745;28;20441;-64
2022/12/02 12:24:25;;;;;;;20.20;12.10;;;5.80;99.90;;;;;;5020596;28;20211;-69
2022/12/02 12:26:53;;;;;;;17.50;12.43;;;5.70;1.00;;;;;;5022257;28;20434;-64
2022/12/02 12:29:21;;;;;;;36.03;12.57;;;5.60;1.00;;;;;;5023480;28;20439;-67
2022/12/02 12:31:47;;;;;;;24.27;12.83;;;5.70;1.00;;;;;;5025063;28;20489;-67
2022/12/02 12:34:15;;;;;;;23.07;11.93;;;5.70;1.00;;;;;;5024110;28;20908;-68
2022/12/02 12:36:42;;;;;;;17.37;11.43;;;5.70;1.00;;;;;;5021379;28;20525;-67
2022/12/02 12:39:08;;;;;;;26.37;13.03;;;5.60;1.00;;;;;;5020773;28;20538;-69
2022/12/02 12:41:37;;;;;;;27.60;12.30;;;5.70;1.00;;;;;;5018112;28;20461;-68
2022/12/02 12:44:04;;;;;;;21.30;11.90;;;5.80;1.00;;;;;;5023534;28;20464;-70
2022/12/02 12:46:29;;;;;;;35.30;16.43;;;6.50;1.00;;;;;;5023933;28;20430;-67
2022/12/02 12:48:56;;;;;;;65.10;18.40;;;8.30;1.00;;;;;;5025366;28;20895;-68
2022/12/02 12:51:22;;;;;;;37.53;13.70;;;8.20;1.00;;;;;;5024739;28;20438;-66
2022/12/02 12:53:48;;;;;;;81.37;17.40;;;7.30;99.90;;;;;;5026261;28;20538;-67
2022/12/02 12:56:13;;;;;;;25.40;13.50;;;6.80;1.00;;;;;;5029453;28;20180;-66
2022/12/02 12:58:39;;;;;;;23.73;14.50;;;6.50;1.00;;;;;;5026710;28;20258;-66